Time;durP1;ratioP1;P1;durP2;ratioP2;P2;SDS_P1;SDS_P2;PMS_P1;PMS_P2;Temp;Humidity;BMP_temperature;BMP_pressure;BME280_temperature;BME280_humidity;BME280_pressure;Samples;Min_cycle;Max_cycle;Signal;HPM_P1;HPM_P2
2022/01/17 00:00:12;;;;;;;26.52;18.13;;;4.10;92.80;;;;;;5055363;28;20112;-67
2022/01/17 00:02:39;;;;;;;23.77;16.85;;;4.10;92.80;;;;;;5073220;28;20210;-66
2022/01/17 00:05:06;;;;;;;24.55;16.60;;;4.10;92.70;;;;;;5072968;28;20489;-67
2022/01/17 00:07:33;;;;;;;23.05;16.35;;;4.10;92.60;;;;;;5073241;28;20055;-66
2022/01/17 00:09:59;;;;;;;24.58;16.95;;;4.20;92.30;;;;;;5073699;28;20090;-66
2022/01/17 00:12:28;;;;;;;24.17;16.92;;;4.20;92.10;;;;;;5072878;28;20052;-66
2022/01/17 00:14:56;;;;;;;23.95;16.40;;;4.20;92.10;;;;;;5073214;28;20032;-67
2022/01/17 00:19:53;;;;;;;21.10;16.05;;;4.20;92.00;;;;;;5073407;28;20465;-67
2022/01/17 00:22:20;;;;;;;23.23;16.33;;;4.20;91.90;;;;;;5073326;28;20457;-67
2022/01/17 00:24:47;;;;;;;21.23;15.18;;;4.30;91.80;;;;;;5073402;28;20363;-67
2022/01/17 00:27:13;;;;;;;24.00;16.45;;;4.30;91.70;;;;;;5073089;28;20028;-67
2022/01/17 00:29:39;;;;;;;19.70;14.88;;;4.30;91.60;;;;;;5072395;28;20298;-67
2022/01/17 00:32:06;;;;;;;24.33;15.30;;;4.30;91.50;;;;;;5072958;28;20388;-68
2022/01/17 00:34:32;;;;;;;20.60;14.52;;;4.30;91.30;;;;;;5072554;28;20021;-68
2022/01/17 00:36:58;;;;;;;20.17;14.98;;;4.40;91.10;;;;;;5073191;28;20037;-67
2022/01/17 00:39:24;;;;;;;19.10;13.90;;;4.40;91.00;;;;;;5072493;28;20361;-67
2022/01/17 00:41:50;;;;;;;22.40;15.10;;;4.40;90.90;;;;;;5072656;28;20024;-67
2022/01/17 00:44:20;;;;;;;18.10;14.35;;;4.40;90.70;;;;;;5072819;28;20028;-67
2022/01/17 00:46:47;;;;;;;21.00;14.93;;;4.40;90.70;;;;;;5073141;28;20112;-67
2022/01/17 00:49:12;;;;;;;21.02;15.43;;;4.50;90.70;;;;;;5072305;28;20025;-66
2022/01/17 00:51:38;;;;;;;22.40;15.25;;;4.50;90.80;;;;;;5072044;28;20032;-66
2022/01/17 00:54:04;;;;;;;21.35;15.57;;;4.40;90.90;;;;;;5072581;28;20120;-67
2022/01/17 00:56:29;;;;;;;26.40;16.35;;;4.40;91.00;;;;;;5071756;28;20158;-66
2022/01/17 00:58:55;;;;;;;22.20;16.45;;;4.40;91.30;;;;;;5054643;28;20024;-66
2022/01/17 01:01:21;;;;;;;22.80;16.30;;;4.40;91.40;;;;;;5072478;28;20029;-66
2022/01/17 01:03:46;;;;;;;23.83;16.85;;;4.30;91.60;;;;;;5072541;28;20024;-67
2022/01/17 01:06:12;;;;;;;22.55;16.67;;;4.30;91.80;;;;;;5072610;28;20036;-67
2022/01/17 01:08:38;;;;;;;26.27;16.70;;;4.30;92.00;;;;;;5072118;28;20036;-67
2022/01/17 01:11:04;;;;;;;24.10;17.60;;;4.30;92.20;;;;;;5072348;28;20042;-66
2022/01/17 01:13:31;;;;;;;27.08;18.75;;;4.30;92.30;;;;;;5071554;28;20044;-66
2022/01/17 01:29:06;;;;;;;22.60;15.60;;;4.20;92.70;;;;;;5017584;28;20471;-67
2022/01/17 01:31:43;;;;;;;23.40;16.80;;;4.20;92.70;;;;;;5071740;28;20085;-66
2022/01/17 01:34:10;;;;;;;22.13;16.10;;;4.20;92.70;;;;;;5072139;28;20079;-68
2022/01/17 01:36:36;;;;;;;20.52;14.90;;;4.10;92.60;;;;;;5071765;28;20025;-66
2022/01/17 01:39:05;;;;;;;20.05;15.05;;;4.20;92.40;;;;;;5072150;28;20402;-66
2022/01/17 01:41:42;;;;;;;21.58;14.73;;;4.20;92.40;;;;;;5071642;28;20165;-66
2022/01/17 01:44:15;;;;;;;24.08;15.80;;;4.20;92.30;;;;;;5072134;28;20119;-66
2022/01/17 01:46:43;;;;;;;20.52;15.05;;;4.20;92.20;;;;;;5071306;28;20029;-66
2022/01/17 01:49:09;;;;;;;20.77;15.13;;;4.20;92.20;;;;;;5071799;28;20039;-67
2022/01/17 01:51:34;;;;;;;22.30;14.98;;;4.20;92.30;;;;;;5071543;28;20017;-66
2022/01/17 01:54:00;;;;;;;22.33;14.85;;;4.20;92.30;;;;;;5072179;28;20361;-66
2022/01/17 01:56:26;;;;;;;20.33;14.65;;;4.20;92.40;;;;;;5071613;28;20087;-66
2022/01/17 01:58:52;;;;;;;21.77;15.35;;;4.20;92.40;;;;;;5072539;28;20043;-66
2022/01/17 02:01:17;;;;;;;21.55;14.88;;;4.20;92.40;;;;;;5076111;28;20376;-66
2022/01/17 02:03:43;;;;;;;21.48;15.25;;;4.20;92.50;;;;;;5075537;28;20226;-66
2022/01/17 02:06:09;;;;;;;20.95;14.75;;;4.20;92.50;;;;;;5075752;28;20025;-66
2022/01/17 02:08:35;;;;;;;18.95;14.73;;;4.20;92.60;;;;;;5075466;28;20020;-67
2022/01/17 02:11:01;;;;;;;19.70;15.10;;;4.20;93.00;;;;;;5075543;28;20075;-67
2022/01/17 02:13:27;;;;;;;21.95;15.20;;;4.20;92.80;;;;;;5075273;28;20052;-66
2022/01/17 02:16:15;;;;;;;20.13;14.90;;;4.20;92.90;;;;;;5075867;28;20024;-66
2022/01/17 02:18:44;;;;;;;22.77;15.45;;;4.10;92.90;;;;;;5075143;28;20025;-66
2022/01/17 02:23:49;;;;;;;23.08;15.98;;;4.10;92.90;;;;;;5075213;28;20307;-66
2022/01/17 02:26:16;;;;;;;22.48;15.45;;;4.10;93.20;;;;;;5075661;28;20020;-66
2022/01/17 02:28:50;;;;;;;23.40;16.48;;;4.10;93.30;;;;;;5074903;28;20048;-67
2022/01/17 02:31:17;;;;;;;23.40;16.30;;;4.10;93.30;;;;;;5075225;28;20060;-67
2022/01/17 02:33:43;;;;;;;21.50;15.90;;;4.10;93.40;;;;;;5074712;28;20074;-69
2022/01/17 02:36:10;;;;;;;21.95;15.65;;;4.00;93.40;;;;;;5075430;28;20162;-67
2022/01/17 02:38:38;;;;;;;21.42;15.63;;;4.00;93.50;;;;;;5074867;28;20059;-67
2022/01/17 02:41:05;;;;;;;20.23;15.30;;;4.00;93.50;;;;;;5074969;28;20560;-67
2022/01/17 02:43:32;;;;;;;21.15;15.45;;;4.00;93.40;;;;;;5074698;28;20036;-66
2022/01/17 02:48:26;;;;;;;20.42;15.00;;;4.00;93.50;;;;;;5074457;28;20021;-66
2022/01/17 02:50:53;;;;;;;17.88;14.43;;;4.00;93.60;;;;;;5074567;28;20028;-66
2022/01/17 02:53:19;;;;;;;19.75;14.90;;;4.10;93.70;;;;;;5075044;28;20032;-66
2022/01/17 02:56:05;;;;;;;19.90;14.38;;;4.10;93.70;;;;;;5073940;28;20049;-66
2022/01/17 02:58:33;;;;;;;19.90;14.85;;;4.00;93.70;;;;;;5073849;28;20380;-66
2022/01/17 03:01:00;;;;;;;18.95;14.85;;;4.00;93.60;;;;;;5074671;28;20074;-66
2022/01/17 03:03:28;;;;;;;20.48;14.80;;;4.00;93.90;;;;;;5074468;28;20104;-66
2022/01/17 03:05:58;;;;;;;17.63;13.57;;;4.10;93.80;;;;;;5074886;28;20067;-66
2022/01/17 03:08:25;;;;;;;18.25;14.20;;;4.10;93.90;;;;;;5074823;28;20377;-66
2022/01/17 03:10:52;;;;;;;19.30;14.50;;;4.10;94.00;;;;;;5073609;28;20111;-67
2022/01/17 03:13:20;;;;;;;17.27;12.75;;;4.10;94.20;;;;;;5074413;28;20504;-67
2022/01/17 03:15:54;;;;;;;18.92;14.27;;;4.10;94.30;;;;;;5074098;28;20304;-67
2022/01/17 03:18:20;;;;;;;17.83;13.68;;;4.10;94.40;;;;;;5074556;28;20036;-67
2022/01/17 03:20:45;;;;;;;17.50;13.50;;;4.10;94.60;;;;;;5073811;28;20023;-66
2022/01/17 03:23:11;;;;;;;19.20;13.27;;;4.10;94.50;;;;;;5074340;28;20028;-67
2022/01/17 03:25:37;;;;;;;18.27;13.23;;;4.10;94.70;;;;;;5074057;28;20048;-67
2022/01/17 03:28:03;;;;;;;18.52;13.65;;;4.20;94.70;;;;;;5074397;28;20032;-67
2022/01/17 03:30:33;;;;;;;18.73;13.35;;;4.20;94.80;;;;;;5073690;28;20385;-67
2022/01/17 03:33:00;;;;;;;20.08;13.80;;;4.20;94.70;;;;;;5074450;28;20040;-67
2022/01/17 03:35:25;;;;;;;19.77;13.02;;;4.20;94.70;;;;;;5073972;28;20039;-67
2022/01/17 03:37:51;;;;;;;17.63;13.68;;;4.20;94.70;;;;;;5074072;28;20041;-67
2022/01/17 03:40:17;;;;;;;18.02;13.25;;;4.20;94.70;;;;;;5074295;28;20028;-67
2022/01/17 03:42:43;;;;;;;15.80;12.05;;;4.30;94.60;;;;;;5073708;28;20187;-67
2022/01/17 03:45:09;;;;;;;18.40;13.40;;;4.30;94.50;;;;;;5074160;28;20032;-67
2022/01/17 03:47:37;;;;;;;14.75;11.38;;;4.30;94.20;;;;;;5073284;28;20354;-68
2022/01/17 03:50:07;;;;;;;14.80;10.52;;;4.30;93.80;;;;;;5074061;28;20115;-67
2022/01/17 03:52:33;;;;;;;14.95;10.65;;;4.40;93.50;;;;;;5073878;28;20115;-66
2022/01/17 03:54:58;;;;;;;15.57;12.00;;;4.40;93.20;;;;;;5073735;28;20127;-66
2022/01/17 03:57:25;;;;;;;14.27;10.63;;;4.50;93.10;;;;;;5056141;28;20028;-66
2022/01/17 03:59:50;;;;;;;15.90;11.38;;;4.50;93.10;;;;;;5073169;28;20032;-67
2022/01/17 04:02:16;;;;;;;12.82;9.68;;;4.50;92.90;;;;;;5073808;28;20029;-67
2022/01/17 04:04:42;;;;;;;13.38;10.32;;;4.50;92.70;;;;;;5073486;28;20480;-66
2022/01/17 04:07:26;;;;;;;13.63;11.00;;;4.60;92.60;;;;;;5073577;28;20060;-66
2022/01/17 04:09:51;;;;;;;12.43;9.55;;;4.60;92.40;;;;;;5073122;28;20503;-67
2022/01/17 04:12:17;;;;;;;14.48;10.23;;;4.60;92.20;;;;;;5073600;28;20020;-68
2022/01/17 04:14:43;;;;;;;14.43;10.32;;;4.60;91.90;;;;;;5073015;28;20120;-66
2022/01/17 04:17:09;;;;;;;14.07;10.15;;;4.70;91.70;;;;;;5073305;28;20056;-67
2022/01/17 04:19:35;;;;;;;12.73;9.32;;;4.70;91.60;;;;;;5072837;28;20077;-68
2022/01/17 04:22:01;;;;;;;12.77;9.82;;;4.70;91.70;;;;;;5072888;28;20024;-66
2022/01/17 04:24:27;;;;;;;12.77;9.75;;;4.70;91.60;;;;;;5072785;28;20350;-67
2022/01/17 04:26:53;;;;;;;13.75;9.70;;;4.70;91.40;;;;;;5072847;28;20036;-66
2022/01/17 04:29:20;;;;;;;11.90;9.07;;;4.80;91.30;;;;;;5073268;28;20028;-66
2022/01/17 04:31:46;;;;;;;12.10;9.68;;;4.80;91.40;;;;;;5054733;28;20373;-67
2022/01/17 04:34:12;;;;;;;13.95;9.60;;;4.80;91.40;;;;;;5073055;28;20024;-68
2022/01/17 04:36:38;;;;;;;11.88;9.23;;;4.80;91.40;;;;;;5072873;28;20028;-67
2022/01/17 04:39:04;;;;;;;14.15;8.75;;;4.80;91.50;;;;;;5072804;28;20377;-67
2022/01/17 04:41:38;;;;;;;14.95;9.77;;;4.80;91.50;;;;;;5072624;28;20020;-66
2022/01/17 04:46:49;;;;;;;11.93;9.52;;;4.80;91.70;;;;;;5072435;28;20081;-66
2022/01/17 04:49:15;;;;;;;13.52;9.43;;;4.80;92.00;;;;;;5072662;28;20107;-66
2022/01/17 04:51:41;;;;;;;13.75;10.25;;;4.80;92.30;;;;;;5072120;28;20024;-67
2022/01/17 04:54:39;;;;;;;13.38;10.40;;;4.80;92.50;;;;;;5072540;28;20032;-67
2022/01/17 04:56:55;;;;;;;15.68;10.90;;;4.80;92.60;;;;;;5070280;28;20040;-66
2022/01/17 04:59:21;;;;;;;14.73;10.60;;;4.80;92.90;;;;;;5072589;28;20031;-67
2022/01/17 05:01:47;;;;;;;14.18;10.70;;;4.70;93.00;;;;;;5054223;28;20038;-67
2022/01/17 05:04:12;;;;;;;14.38;10.15;;;4.70;93.10;;;;;;5072597;28;20035;-67
2022/01/17 05:06:38;;;;;;;15.88;11.05;;;4.70;92.90;;;;;;5072087;28;20489;-67
2022/01/17 05:09:04;;;;;;;13.48;10.40;;;4.80;93.00;;;;;;5072464;28;20082;-66
2022/01/17 05:11:31;;;;;;;14.15;11.45;;;4.80;93.20;;;;;;5072454;28;20043;-67
2022/01/17 05:13:57;;;;;;;19.02;12.48;;;4.80;93.40;;;;;;5053691;28;20055;-66
2022/01/17 05:16:31;;;;;;;16.23;11.82;;;4.80;93.40;;;;;;5072253;28;20122;-66
2022/01/17 05:21:41;;;;;;;16.52;12.52;;;4.80;93.20;;;;;;5071660;28;20129;-66
2022/01/17 05:24:07;;;;;;;17.15;12.90;;;4.80;93.30;;;;;;5072315;28;20025;-66
2022/01/17 05:26:33;;;;;;;17.65;12.70;;;4.90;93.40;;;;;;5072161;28;20095;-67
2022/01/17 05:28:58;;;;;;;18.40;13.18;;;4.90;93.50;;;;;;5071961;28;20028;-66
2022/01/17 05:31:24;;;;;;;19.98;13.20;;;4.90;93.60;;;;;;5072128;28;20461;-67
2022/01/17 05:33:50;;;;;;;20.30;13.38;;;4.90;93.70;;;;;;5071659;28;20434;-67
2022/01/17 05:36:15;;;;;;;18.00;13.93;;;4.90;94.10;;;;;;5072246;28;20350;-66
2022/01/17 05:38:41;;;;;;;20.20;13.60;;;4.90;94.40;;;;;;5071533;28;20024;-66
2022/01/17 05:41:07;;;;;;;17.75;14.27;;;4.90;94.60;;;;;;5071978;28;20119;-67
2022/01/17 05:43:32;;;;;;;18.67;14.20;;;4.80;94.80;;;;;;5072132;28;20024;-67
2022/01/17 05:45:58;;;;;;;22.35;14.65;;;4.80;94.70;;;;;;5071444;28;20419;-67
2022/01/17 05:48:24;;;;;;;19.15;14.30;;;4.80;94.80;;;;;;5072274;28;20100;-67
2022/01/17 05:50:50;;;;;;;20.13;15.00;;;4.90;94.80;;;;;;5071427;28;20032;-66
2022/01/17 05:53:16;;;;;;;20.13;14.98;;;4.90;94.80;;;;;;5071936;28;20135;-67
2022/01/17 05:55:42;;;;;;;21.20;15.38;;;4.90;94.90;;;;;;5071262;28;20083;-66
2022/01/17 05:58:09;;;;;;;18.45;13.98;;;4.90;94.90;;;;;;5071991;28;20060;-67
2022/01/17 06:00:35;;;;;;;20.23;15.02;;;4.80;95.00;;;;;;5071917;28;20384;-67
2022/01/17 06:03:01;;;;;;;20.63;15.10;;;4.90;94.90;;;;;;5071860;28;20384;-66
2022/01/17 06:05:27;;;;;;;22.75;16.20;;;4.90;94.90;;;;;;5071446;28;20039;-66
2022/01/17 06:07:52;;;;;;;24.27;15.30;;;4.90;94.90;;;;;;5071264;28;20060;-66
2022/01/17 06:10:18;;;;;;;20.25;14.50;;;4.90;94.70;;;;;;5071781;28;20457;-66
2022/01/17 06:12:44;;;;;;;20.92;15.18;;;4.90;94.60;;;;;;5069998;28;20099;-67
2022/01/17 06:15:09;;;;;;;18.85;14.35;;;4.90;94.40;;;;;;5071278;28;20064;-66
2022/01/17 06:17:36;;;;;;;22.00;15.27;;;4.90;94.30;;;;;;5071778;28;20509;-67
2022/01/17 06:20:03;;;;;;;22.92;16.23;;;4.90;94.30;;;;;;5071666;28;20098;-66
2022/01/17 06:22:29;;;;;;;22.23;16.00;;;4.90;94.20;;;;;;5071439;28;20044;-66
2022/01/17 06:24:54;;;;;;;19.60;14.77;;;4.90;94.20;;;;;;5070853;28;20028;-67
2022/01/17 06:27:20;;;;;;;21.38;14.15;;;4.90;94.10;;;;;;5071459;28;20032;-67
2022/01/17 06:29:46;;;;;;;21.15;15.68;;;4.90;94.20;;;;;;5070906;28;20103;-66
2022/01/17 06:32:12;;;;;;;19.73;13.75;;;4.90;94.10;;;;;;5071614;28;20024;-67
2022/01/17 06:34:37;;;;;;;19.92;14.65;;;4.90;93.90;;;;;;5071249;28;20056;-67
2022/01/17 06:37:03;;;;;;;22.45;15.85;;;4.80;93.80;;;;;;5071432;28;20062;-67
2022/01/17 06:39:29;;;;;;;23.58;14.90;;;4.80;93.80;;;;;;5071484;28;20024;-66
2022/01/17 06:41:55;;;;;;;22.80;15.65;;;4.80;93.60;;;;;;5070937;28;20141;-67
2022/01/17 06:44:20;;;;;;;18.58;13.48;;;4.80;93.80;;;;;;5071362;28;20523;-67
2022/01/17 06:46:46;;;;;;;22.33;15.20;;;4.80;93.60;;;;;;5072839;28;20028;-67
2022/01/17 06:49:13;;;;;;;21.38;14.35;;;4.90;93.50;;;;;;5075427;28;20469;-67
2022/01/17 06:51:39;;;;;;;22.38;15.20;;;4.90;93.50;;;;;;5074358;28;20476;-67
2022/01/17 06:54:04;;;;;;;17.50;13.13;;;4.90;93.50;;;;;;5074901;28;20032;-68
2022/01/17 06:56:30;;;;;;;20.85;14.38;;;4.90;93.30;;;;;;5074522;28;20044;-67
2022/01/17 06:58:55;;;;;;;17.88;13.23;;;4.90;93.30;;;;;;5074261;28;20120;-67
2022/01/17 07:01:22;;;;;;;20.50;14.10;;;4.90;93.10;;;;;;5074726;28;20361;-67
2022/01/17 07:03:50;;;;;;;18.30;13.32;;;5.00;93.10;;;;;;5073511;28;20029;-66
2022/01/17 07:06:16;;;;;;;19.08;14.27;;;5.00;93.00;;;;;;5074653;28;20465;-67
2022/01/17 07:08:45;;;;;;;20.85;14.40;;;5.00;93.10;;;;;;5073979;28;20024;-67
2022/01/17 07:11:11;;;;;;;19.17;13.63;;;5.00;93.10;;;;;;5074497;28;20111;-67
2022/01/17 07:13:37;;;;;;;17.77;13.20;;;5.00;93.00;;;;;;5056558;28;20078;-68
2022/01/17 07:16:03;;;;;;;18.77;13.60;;;5.00;92.90;;;;;;5073926;28;20037;-69
2022/01/17 07:18:29;;;;;;;22.88;13.70;;;5.00;92.90;;;;;;5074702;28;20404;-70
2022/01/17 07:20:55;;;;;;;19.77;13.68;;;5.10;93.00;;;;;;5073914;28;20039;-67
2022/01/17 07:23:20;;;;;;;20.00;14.80;;;5.10;93.10;;;;;;5074438;28;20103;-69
2022/01/17 07:25:46;;;;;;;27.90;15.15;;;5.00;93.20;;;;;;5074126;28;20025;-68
2022/01/17 07:28:13;;;;;;;24.73;15.57;;;5.10;93.40;;;;;;5074529;28;20024;-68
2022/01/17 07:30:39;;;;;;;21.33;15.27;;;5.10;93.50;;;;;;5074349;28;20033;-69
2022/01/17 07:33:06;;;;;;;22.45;15.05;;;5.10;93.60;;;;;;5073663;28;20449;-68
2022/01/17 07:35:32;;;;;;;23.02;15.35;;;5.10;93.80;;;;;;5074225;28;20037;-69
2022/01/17 07:37:58;;;;;;;24.45;16.63;;;5.10;93.90;;;;;;5074171;28;20082;-68
2022/01/17 07:40:24;;;;;;;24.67;15.63;;;5.10;94.00;;;;;;5074420;28;20318;-69
2022/01/17 07:42:50;;;;;;;22.83;15.40;;;5.10;94.10;;;;;;5074206;28;20060;-68
2022/01/17 07:45:18;;;;;;;24.70;16.08;;;5.10;94.00;;;;;;5074267;28;20056;-69
2022/01/17 07:50:30;;;;;;;22.98;16.08;;;5.10;93.70;;;;;;5042405;28;20039;-70
2022/01/17 07:52:56;;;;;;;28.00;15.63;;;5.10;93.60;;;;;;5073656;28;20024;-69
2022/01/17 07:55:22;;;;;;;19.15;14.00;;;5.10;93.50;;;;;;5073812;28;20052;-69
2022/01/17 07:57:48;;;;;;;22.67;13.77;;;5.10;93.40;;;;;;5073411;28;20073;-67
2022/01/17 08:00:20;;;;;;;22.67;15.43;;;5.10;93.40;;;;;;5073902;28;20029;-68
2022/01/17 08:02:47;;;;;;;19.92;14.77;;;5.10;93.50;;;;;;5073388;28;20032;-68
2022/01/17 08:05:14;;;;;;;22.08;15.48;;;5.10;93.40;;;;;;5073977;28;20515;-69
2022/01/17 08:07:44;;;;;;;21.48;14.10;;;5.10;93.50;;;;;;5073612;28;20033;-68
2022/01/17 08:10:12;;;;;;;20.23;14.63;;;5.10;93.40;;;;;;5073561;28;20392;-69
2022/01/17 08:12:43;;;;;;;20.10;14.35;;;5.20;93.40;;;;;;5073812;28;20563;-68
2022/01/17 08:15:10;;;;;;;19.02;13.63;;;5.20;93.20;;;;;;5055332;28;20078;-68
2022/01/17 08:17:36;;;;;;;19.95;13.43;;;5.20;93.10;;;;;;5073688;28;20036;-68
2022/01/17 08:20:03;;;;;;;20.77;12.05;;;5.20;92.90;;;;;;5055399;28;20082;-68
2022/01/17 08:22:28;;;;;;;17.50;11.93;;;5.20;92.70;;;;;;5073900;28;20059;-69
2022/01/17 08:24:54;;;;;;;22.58;12.05;;;5.20;92.50;;;;;;5073360;28;20060;-69
2022/01/17 08:27:20;;;;;;;19.88;11.68;;;5.20;92.60;;;;;;5073244;28;20060;-69
2022/01/17 08:29:45;;;;;;;16.35;10.93;;;5.20;92.40;;;;;;5072936;28;20063;-68
2022/01/17 08:32:11;;;;;;;20.02;11.05;;;5.20;92.30;;;;;;5073533;28;20028;-68
2022/01/17 08:34:37;;;;;;;14.68;10.00;;;5.20;92.40;;;;;;5073269;28;20124;-68
2022/01/17 08:37:03;;;;;;;14.25;10.25;;;5.20;92.10;;;;;;5072464;28;20393;-68
2022/01/17 08:39:29;;;;;;;13.23;9.93;;;5.30;92.10;;;;;;5073255;28;20032;-67
2022/01/17 08:41:55;;;;;;;12.98;9.35;;;5.30;91.90;;;;;;5072595;28;20020;-70
2022/01/17 08:44:22;;;;;;;15.05;9.70;;;5.30;91.70;;;;;;5073170;28;20385;-68
2022/01/17 08:46:49;;;;;;;10.57;8.27;;;5.30;91.60;;;;;;5072496;28;20561;-66
2022/01/17 08:49:16;;;;;;;16.13;8.63;;;5.30;91.50;;;;;;5072849;28;20095;-69
2022/01/17 08:51:43;;;;;;;12.70;8.15;;;5.40;91.40;;;;;;5072855;28;20033;-69
2022/01/17 08:54:09;;;;;;;12.65;8.93;;;5.40;91.30;;;;;;5072393;28;20033;-72
2022/01/17 08:56:34;;;;;;;17.13;7.90;;;5.40;91.30;;;;;;5072611;28;20120;-69
2022/01/17 08:59:01;;;;;;;12.75;8.52;;;5.40;91.20;;;;;;5072446;28;20017;-68
2022/01/17 09:01:28;;;;;;;11.05;7.57;;;5.40;91.30;;;;;;5072955;28;20048;-69
2022/01/17 09:03:54;;;;;;;12.07;7.18;;;5.40;91.20;;;;;;5072372;28;20028;-68
2022/01/17 09:06:20;;;;;;;14.07;7.43;;;5.40;91.20;;;;;;5072408;28;20534;-69
2022/01/17 09:08:45;;;;;;;9.32;7.07;;;5.40;91.20;;;;;;5054148;28;20378;-69
2022/01/17 09:11:11;;;;;;;15.20;7.72;;;5.50;91.20;;;;;;5072449;28;20039;-68
2022/01/17 09:13:37;;;;;;;9.40;6.63;;;5.50;91.20;;;;;;5072648;28;20029;-69
2022/01/17 09:16:03;;;;;;;15.23;6.95;;;5.50;91.30;;;;;;5072128;28;20117;-69
2022/01/17 09:18:29;;;;;;;11.27;7.28;;;5.50;91.30;;;;;;5072457;28;20104;-69
2022/01/17 09:20:55;;;;;;;10.00;7.30;;;5.50;91.30;;;;;;5071948;28;20025;-71
2022/01/17 09:23:21;;;;;;;12.25;7.05;;;5.50;91.40;;;;;;5072299;28;20108;-69
2022/01/17 09:25:47;;;;;;;10.68;6.97;;;5.50;91.40;;;;;;5072384;28;20385;-69
2022/01/17 09:28:13;;;;;;;11.65;6.78;;;5.50;91.50;;;;;;5072024;28;20028;-68
2022/01/17 09:30:40;;;;;;;10.52;7.22;;;5.50;91.50;;;;;;5072475;28;20029;-69
2022/01/17 09:33:06;;;;;;;10.65;7.50;;;5.50;91.80;;;;;;5071985;28;20104;-67
2022/01/17 09:35:32;;;;;;;10.43;7.22;;;5.50;91.70;;;;;;5072079;28;20473;-69
2022/01/17 09:37:59;;;;;;;11.68;7.57;;;5.50;91.70;;;;;;5071887;28;20500;-68
2022/01/17 09:40:24;;;;;;;12.23;7.28;;;5.50;91.60;;;;;;5072487;28;20024;-68
2022/01/17 09:42:50;;;;;;;11.32;7.28;;;5.60;91.70;;;;;;5072126;28;20035;-68
2022/01/17 09:45:21;;;;;;;13.20;7.07;;;5.60;91.60;;;;;;5072563;28;20033;-68
2022/01/17 09:47:47;;;;;;;10.85;7.45;;;5.60;91.60;;;;;;5072229;28;20104;-69
2022/01/17 09:50:20;;;;;;;11.35;7.38;;;5.60;91.70;;;;;;5071538;28;20503;-68
2022/01/17 09:52:49;;;;;;;10.27;8.07;;;5.60;91.60;;;;;;5072100;28;20462;-68
2022/01/17 09:55:21;;;;;;;14.50;8.63;;;5.60;91.60;;;;;;5071287;28;20063;-69
2022/01/17 09:58:00;;;;;;;13.35;7.63;;;5.60;91.60;;;;;;5072098;28;20523;-69
2022/01/17 10:00:32;;;;;;;12.93;7.88;;;5.60;91.60;;;;;;5071895;28;20028;-69
2022/01/17 10:05:46;;;;;;;16.25;9.00;;;5.70;91.60;;;;;;5072267;28;20044;-68
2022/01/17 10:08:21;;;;;;;12.40;8.82;;;5.70;91.70;;;;;;5071558;28;20246;-68
2022/01/17 10:11:01;;;;;;;12.25;8.80;;;5.70;91.50;;;;;;5072189;28;20033;-69
2022/01/17 10:13:31;;;;;;;14.35;8.27;;;5.70;91.60;;;;;;5072125;28;20097;-68
2022/01/17 10:16:08;;;;;;;13.10;8.32;;;5.70;91.40;;;;;;5071113;28;20033;-68
2022/01/17 10:18:58;;;;;;;18.38;9.07;;;5.70;91.30;;;;;;5071669;28;20029;-69
2022/01/17 10:21:47;;;;;;;11.38;8.43;;;5.70;91.40;;;;;;5073411;28;20076;-69
2022/01/17 10:35:25;;;;;;;12.50;8.25;;;5.80;91.10;;;;;;5075642;28;20039;-69
2022/01/17 10:37:59;;;;;;;16.13;8.45;;;5.80;91.00;;;;;;5075350;28;20029;-69
2022/01/17 10:40:27;;;;;;;13.75;8.20;;;5.80;91.00;;;;;;5075562;28;20052;-69
2022/01/17 10:42:54;;;;;;;11.15;7.40;;;5.80;90.60;;;;;;5075422;28;20020;-68
2022/01/17 10:45:33;;;;;;;13.63;8.45;;;5.90;90.20;;;;;;5074709;28;20029;-69
2022/01/17 10:48:00;;;;;;;14.85;8.18;;;5.90;90.20;;;;;;5074728;28;20028;-69
2022/01/17 10:50:30;;;;;;;13.68;8.43;;;5.90;90.40;;;;;;5075585;28;20028;-69
2022/01/17 10:53:06;;;;;;;14.00;8.63;;;5.90;90.50;;;;;;5075017;28;20090;-69
2022/01/17 10:55:34;;;;;;;13.20;8.00;;;5.90;90.40;;;;;;5074857;28;20505;-69
2022/01/17 10:58:09;;;;;;;12.48;8.20;;;5.90;90.20;;;;;;5074538;28;20504;-67
2022/01/17 11:00:44;;;;;;;12.68;7.80;;;5.90;90.10;;;;;;5075094;28;20086;-70
2022/01/17 11:03:15;;;;;;;13.15;7.68;;;5.90;90.00;;;;;;5074462;28;20020;-69
2022/01/17 11:05:44;;;;;;;13.07;7.32;;;5.90;90.00;;;;;;5074953;28;20086;-69
2022/01/17 11:08:10;;;;;;;15.40;7.93;;;5.90;90.00;;;;;;5074403;28;20050;-69
2022/01/17 11:10:47;;;;;;;10.55;7.45;;;5.90;89.80;;;;;;5074721;28;20028;-69
2022/01/17 11:13:15;;;;;;;11.07;6.85;;;6.00;89.60;;;;;;5074503;28;20025;-70
2022/01/17 11:15:45;;;;;;;9.32;5.93;;;6.00;89.00;;;;;;5074684;28;20032;-69
2022/01/17 11:18:19;;;;;;;15.82;7.25;;;6.10;88.60;;;;;;5074348;28;20033;-69
2022/01/17 11:20:47;;;;;;;8.00;6.63;;;6.10;87.70;;;;;;5074855;28;20052;-70
2022/01/17 11:23:13;;;;;;;12.57;6.80;;;6.10;88.00;;;;;;5074105;28;20086;-68
2022/01/17 11:25:43;;;;;;;10.25;6.57;;;6.10;87.80;;;;;;5074348;28;20408;-69
2022/01/17 11:28:10;;;;;;;9.13;6.25;;;6.10;87.80;;;;;;5074085;28;20091;-69
2022/01/17 11:30:38;;;;;;;10.40;6.97;;;6.20;87.50;;;;;;5074552;28;20037;-69
2022/01/17 11:33:08;;;;;;;10.18;6.55;;;6.10;87.50;;;;;;5073419;28;20025;-68
2022/01/17 11:35:37;;;;;;;10.30;6.38;;;6.20;87.50;;;;;;5074204;28;20437;-69
2022/01/17 11:38:04;;;;;;;12.75;6.88;;;6.20;87.20;;;;;;5073560;28;20481;-69
2022/01/17 11:40:35;;;;;;;15.40;6.32;;;6.20;87.90;;;;;;5074179;28;20052;-70
2022/01/17 11:43:35;;;;;;;13.90;6.80;;;6.20;86.70;;;;;;5073619;28;20025;-67
2022/01/17 11:46:20;;;;;;;11.45;6.90;;;6.20;86.80;;;;;;5072629;28;20480;-68
2022/01/17 11:49:04;;;;;;;9.45;6.40;;;6.20;87.00;;;;;;5073899;28;20470;-69
2022/01/17 11:51:45;;;;;;;10.27;7.20;;;6.20;87.00;;;;;;5074039;28;20039;-68
2022/01/17 11:54:11;;;;;;;;;;;6.20;86.90;;;;;;5073822;28;20377;-68
2022/01/17 11:56:38;;;;;;;10.65;6.55;;;6.20;86.80;;;;;;5074028;28;19916;-68
2022/01/17 11:59:41;;;;;;;8.73;6.45;;;6.20;87.10;;;;;;5073300;28;20295;-68
2022/01/17 12:02:16;;;;;;;12.90;6.53;;;6.20;87.20;;;;;;5073335;28;20089;-67
2022/01/17 12:05:08;;;;;;;11.48;7.15;;;6.20;86.80;;;;;;5073767;28;20106;-68
2022/01/17 12:07:42;;;;;;;14.80;6.97;;;6.20;86.80;;;;;;5073475;28;20029;-69
2022/01/17 12:10:09;;;;;;;10.30;6.85;;;6.20;86.60;;;;;;5073063;28;20047;-68
2022/01/17 12:12:35;;;;;;;11.63;7.25;;;6.20;86.80;;;;;;5073662;28;20146;-69
2022/01/17 12:15:06;;;;;;;10.25;7.22;;;6.20;86.80;;;;;;5073466;28;20115;-68
2022/01/17 12:17:32;;;;;;;12.52;6.82;;;6.30;86.70;;;;;;5073482;28;20116;-68
2022/01/17 12:20:09;;;;;;;11.32;7.30;;;6.30;87.00;;;;;;5073336;28;20028;-69
2022/01/17 12:22:43;;;;;;;14.45;6.95;;;6.30;87.00;;;;;;5073581;28;20032;-68
2022/01/17 12:25:23;;;;;;;17.25;6.72;;;6.30;86.70;;;;;;5072487;28;20387;-70
2022/01/17 12:27:49;;;;;;;9.45;6.82;;;6.30;86.70;;;;;;5073172;28;20105;-69
2022/01/17 12:30:16;;;;;;;10.98;6.50;;;6.30;86.70;;;;;;5072710;28;20106;-68
2022/01/17 12:32:45;;;;;;;7.55;6.35;;;6.30;86.90;;;;;;5055344;28;20032;-68
2022/01/17 12:35:26;;;;;;;19.83;7.13;;;6.30;86.60;;;;;;5072386;28;20028;-66
2022/01/17 12:38:07;;;;;;;11.98;6.53;;;6.30;86.50;;;;;;5073022;28;20029;-68
2022/01/17 12:40:39;;;;;;;12.23;7.32;;;6.30;86.00;;;;;;5072895;28;20478;-69
2022/01/17 12:43:09;;;;;;;10.82;6.57;;;6.30;85.70;;;;;;5072079;28;20215;-67
2022/01/17 12:45:40;;;;;;;8.77;6.80;;;6.30;85.80;;;;;;5072717;28;20051;-69
2022/01/17 12:48:12;;;;;;;17.42;7.75;;;6.30;85.90;;;;;;5072539;28;20025;-67
2022/01/17 12:51:00;;;;;;;9.45;6.50;;;6.30;85.80;;;;;;5072669;28;20028;-68
2022/01/17 12:53:27;;;;;;;8.40;6.60;;;6.30;85.50;;;;;;5072328;28;20016;-69
2022/01/17 12:55:58;;;;;;;11.30;6.63;;;6.30;85.70;;;;;;5072631;28;20075;-67
2022/01/17 12:58:25;;;;;;;11.32;6.80;;;6.30;85.40;;;;;;5072146;28;20137;-67
2022/01/17 13:00:58;;;;;;;9.52;6.85;;;6.30;85.30;;;;;;5072544;28;20047;-69
2022/01/17 13:03:26;;;;;;;10.82;6.45;;;6.30;85.30;;;;;;5072025;28;20028;-68
2022/01/17 13:05:53;;;;;;;16.80;6.63;;;6.30;85.20;;;;;;5072484;28;20028;-68
2022/01/17 13:08:21;;;;;;;10.13;6.80;;;6.30;85.20;;;;;;5071956;28;20028;-68
2022/01/17 13:10:47;;;;;;;10.65;6.82;;;6.30;85.70;;;;;;5072427;28;20031;-68
2022/01/17 13:13:16;;;;;;;9.23;6.15;;;6.30;86.20;;;;;;5071830;28;20025;-68
2022/01/17 13:16:04;;;;;;;9.27;6.10;;;6.30;86.30;;;;;;5072233;28;20074;-69
2022/01/17 13:18:32;;;;;;;12.40;6.53;;;6.30;86.60;;;;;;5071746;28;20028;-69
2022/01/17 13:21:00;;;;;;;8.55;6.43;;;6.30;87.30;;;;;;5072363;28;20047;-68
2022/01/17 13:24:22;;;;;;;9.88;7.05;;;6.30;88.80;;;;;;5071855;28;20070;-69
2022/01/17 13:26:51;;;;;;;;;;;6.30;89.10;;;;;;5072833;28;20017;-68
2022/01/17 13:29:17;;;;;;;8.85;6.00;;;6.20;89.80;;;;;;5071736;28;19904;-69
2022/01/17 13:31:44;;;;;;;11.00;6.22;;;6.20;90.20;;;;;;5072201;28;20020;-68